Time,TemperatureF,DewpointF,PressureIn,WindDirection,WindDirectionDegrees,WindSpeedMPH,WindSpeedGustMPH,Humidity,HourlyPrecipIn,Conditions,Clouds,dailyrainin,SoftwareType,DateUTC
2013-08-11 00:00:00,54.4,50.3,30.04,NW,304,0.0,9.0,86,0.00,,,0.00,Wunderground v.1.15,2013-08-11 04:00:00,
2013-08-11 00:10:00,53.9,50.1,30.04,NW,304,0.0,0.0,87,0.00,,,0.00,Wunderground v.1.15,2013-08-11 04:10:00,
2013-08-11 00:20:00,53.5,50.3,30.04,NW,304,0.0,0.0,89,0.00,,,0.00,Wunderground v.1.15,2013-08-11 04:20:00,
2013-08-11 00:30:00,53.8,50.3,30.04,NW,304,0.0,0.0,88,0.00,,,0.00,Wunderground v.1.15,2013-08-11 04:30:00,
2013-08-11 00:40:00,53.6,50.1,30.04,NW,304,0.0,0.0,88,0.00,,,0.00,Wunderground v.1.15,2013-08-11 04:40:00,
2013-08-11 00:50:00,53.5,50.0,30.04,NW,304,0.0,0.0,88,0.00,,,0.00,Wunderground v.1.15,2013-08-11 04:50:00,
2013-08-11 01:00:00,53.5,50.0,30.04,NW,304,0.0,0.0,88,0.00,,,0.00,Wunderground v.1.15,2013-08-11 05:00:00,
2013-08-11 01:40:00,52.3,49.8,30.05,NW,304,0.0,0.0,91,0.00,,,0.00,Wunderground v.1.15,2013-08-11 05:40:00,
2013-08-11 01:50:00,52.3,50.0,30.06,NW,304,0.0,0.0,92,0.00,,,0.00,Wunderground v.1.15,2013-08-11 05:50:00,
2013-08-11 02:00:00,52.5,49.9,30.06,NW,304,0.0,0.0,91,0.00,,,0.00,Wunderground v.1.15,2013-08-11 06:00:00,
2013-08-11 02:10:00,52.8,50.5,30.06,NW,304,0.0,0.0,92,0.00,,,0.00,Wunderground v.1.15,2013-08-11 06:10:00,
2013-08-11 02:20:00,52.6,50.0,30.06,NW,304,0.0,0.0,91,0.00,,,0.00,Wunderground v.1.15,2013-08-11 06:20:00,
2013-08-11 02:30:00,52.6,50.0,30.06,NW,304,0.0,0.0,91,0.00,,,0.00,Wunderground v.1.15,2013-08-11 06:30:00,
2013-08-11 02:40:00,52.6,50.3,30.06,NW,304,0.0,0.0,92,0.00,,,0.00,Wunderground v.1.15,2013-08-11 06:40:00,
2013-08-11 02:50:00,52.3,49.8,30.06,NW,304,0.0,0.0,91,0.00,,,0.00,Wunderground v.1.15,2013-08-11 06:50:00,
2013-08-11 03:00:00,52.0,49.7,30.06,NW,304,0.0,0.0,92,0.00,,,0.00,Wunderground v.1.15,2013-08-11 07:00:00,
2013-08-11 03:10:00,51.9,50.2,30.06,NW,304,0.0,0.0,94,0.00,,,0.00,Wunderground v.1.15,2013-08-11 07:10:00,
2013-08-11 03:20:00,51.9,50.5,30.06,NW,304,0.0,0.0,95,0.00,,,0.00,Wunderground v.1.15,2013-08-11 07:20:00,
2013-08-11 03:30:00,51.7,50.3,30.06,NW,304,0.0,0.0,95,0.00,,,0.00,Wunderground v.1.15,2013-08-11 07:30:00,
2013-08-11 03:40:00,51.7,50.3,30.06,NW,304,0.0,0.0,95,0.00,,,0.00,Wunderground v.1.15,2013-08-11 07:40:00,
2013-08-11 03:50:00,52.0,50.9,30.05,NW,304,0.0,0.0,96,0.00,,,0.00,Wunderground v.1.15,2013-08-11 07:50:00,
2013-08-11 04:00:00,52.2,51.1,30.06,NW,304,0.0,0.0,96,0.00,,,0.00,Wunderground v.1.15,2013-08-11 08:00:00,
2013-08-11 04:10:00,52.2,51.1,30.06,NW,304,0.0,0.0,96,0.00,,,0.00,Wunderground v.1.15,2013-08-11 08:10:00,
2013-08-11 04:20:00,52.3,51.2,30.06,NW,304,0.0,0.0,96,0.00,,,0.00,Wunderground v.1.15,2013-08-11 08:20:00,
2013-08-11 04:30:00,52.3,51.2,30.06,NW,304,0.0,0.0,96,0.00,,,0.00,Wunderground v.1.15,2013-08-11 08:30:00,
2013-08-11 04:40:00,52.6,51.5,30.06,NW,304,0.0,0.0,96,0.00,,,0.00,Wunderground v.1.15,2013-08-11 08:40:00,
2013-08-11 04:50:00,52.8,51.7,30.06,NW,304,0.0,0.0,96,0.00,,,0.00,Wunderground v.1.15,2013-08-11 08:50:00,
2013-08-11 05:00:00,52.6,51.5,30.06,NW,304,0.0,0.0,96,0.00,,,0.00,Wunderground v.1.15,2013-08-11 09:00:00,
2013-08-11 05:10:00,52.6,51.5,30.06,NW,304,0.0,0.0,96,0.00,,,0.00,Wunderground v.1.15,2013-08-11 09:10:00,
2013-08-11 05:20:00,52.5,51.1,30.07,NW,304,0.0,0.0,95,0.00,,,0.00,Wunderground v.1.15,2013-08-11 09:20:00,
2013-08-11 05:30:00,52.0,50.6,30.07,NW,304,0.0,0.0,95,0.00,,,0.00,Wunderground v.1.15,2013-08-11 09:30:00,
2013-08-11 05:40:00,51.7,50.6,30.07,NW,304,0.0,0.0,96,0.00,,,0.00,Wunderground v.1.15,2013-08-11 09:40:00,
2013-08-11 05:50:00,51.7,50.6,30.08,NW,304,0.0,0.0,96,0.00,,,0.00,Wunderground v.1.15,2013-08-11 09:50:00,
2013-08-11 06:00:00,51.7,50.6,30.08,NW,304,0.0,0.0,96,0.00,,,0.00,Wunderground v.1.15,2013-08-11 10:00:00,
2013-08-11 06:10:00,51.6,50.5,30.08,NW,304,0.0,0.0,96,0.00,,,0.00,Wunderground v.1.15,2013-08-11 10:10:00,
2013-08-11 06:20:00,51.3,50.2,30.08,NW,304,0.0,0.0,96,0.00,,,0.00,Wunderground v.1.15,2013-08-11 10:20:00,
2013-08-11 06:30:00,51.4,50.6,30.08,NW,304,0.0,0.0,97,0.00,,,0.00,Wunderground v.1.15,2013-08-11 10:30:00,
2013-08-11 06:40:00,51.6,50.8,30.08,NW,304,0.0,0.0,97,0.00,,,0.00,Wunderground v.1.15,2013-08-11 10:40:00,
2013-08-11 06:50:00,52.2,51.4,30.08,NW,304,0.0,0.0,97,0.00,,,0.00,Wunderground v.1.15,2013-08-11 10:50:00,
2013-08-11 07:00:00,52.3,51.2,30.09,NW,304,0.0,0.0,96,0.00,,,0.00,Wunderground v.1.15,2013-08-11 11:00:00,
2013-08-11 07:10:00,51.9,50.8,30.09,NW,304,0.0,0.0,96,0.00,,,0.00,Wunderground v.1.15,2013-08-11 11:10:00,
2013-08-11 07:20:00,52.2,51.4,30.09,NW,304,0.0,0.0,97,0.00,,,0.00,Wunderground v.1.15,2013-08-11 11:20:00,
2013-08-11 07:30:00,52.8,52.0,30.09,NW,304,0.0,0.0,97,0.00,,,0.00,Wunderground v.1.15,2013-08-11 11:30:00,
2013-08-11 07:40:00,52.9,52.1,30.09,NW,304,0.0,0.0,97,0.00,,,0.00,Wunderground v.1.15,2013-08-11 11:40:00,
2013-08-11 07:50:00,53.5,52.7,30.09,NW,304,0.0,0.0,97,0.00,,,0.00,Wunderground v.1.15,2013-08-11 11:50:00,
2013-08-11 08:00:00,54.5,53.7,30.09,SSE,160,0.0,0.0,97,0.00,,,0.00,Wunderground v.1.15,2013-08-11 12:00:00,
2013-08-11 08:10:00,55.0,53.9,30.09,SSE,160,0.0,1.0,96,0.00,,,0.00,Wunderground v.1.15,2013-08-11 12:10:00,
2013-08-11 08:20:00,56.5,54.5,30.09,SSE,153,0.0,0.0,93,0.00,,,0.00,Wunderground v.1.15,2013-08-11 12:20:00,
2013-08-11 08:30:00,58.6,55.1,30.09,SE,143,1.0,1.0,88,0.00,,,0.00,Wunderground v.1.15,2013-08-11 12:30:00,
2013-08-11 08:40:00,60.2,56.0,30.09,SSE,148,1.0,1.0,86,0.00,,,0.00,Wunderground v.1.15,2013-08-11 12:40:00,
2013-08-11 08:50:00,61.6,56.0,30.09,ESE,108,0.0,0.0,82,0.00,,,0.00,Wunderground v.1.15,2013-08-11 12:50:00,
2013-08-11 09:00:00,62.6,55.6,30.09,SE,138,1.0,1.0,78,0.00,,,0.00,Wunderground v.1.15,2013-08-11 13:00:00,
2013-08-11 09:10:00,63.7,56.4,30.09,ESE,102,1.0,1.0,77,0.00,,,0.00,Wunderground v.1.15,2013-08-11 13:10:00,
2013-08-11 09:20:00,64.3,56.6,30.10,ESE,106,0.0,0.0,76,0.00,,,0.00,Wunderground v.1.15,2013-08-11 13:20:00,
2013-08-11 09:30:00,65.5,58.1,30.10,East,97,0.0,0.0,77,0.00,,,0.00,Wunderground v.1.15,2013-08-11 13:30:00,
2013-08-11 09:40:00,66.0,56.7,30.10,SSE,158,0.0,0.0,72,0.00,,,0.00,Wunderground v.1.15,2013-08-11 13:40:00,
2013-08-11 09:50:00,66.4,57.5,30.10,SSE,158,0.0,0.0,73,0.00,,,0.00,Wunderground v.1.15,2013-08-11 13:50:00,
2013-08-11 10:00:00,66.9,56.8,30.10,SE,146,0.0,0.0,70,0.00,,,0.00,Wunderground v.1.15,2013-08-11 14:00:00,
2013-08-11 10:10:00,67.6,57.5,30.10,SE,144,1.0,1.0,70,0.00,,,0.00,Wunderground v.1.15,2013-08-11 14:10:00,
2013-08-11 10:20:00,68.6,57.6,30.10,SSW,202,0.0,0.0,68,0.00,,,0.00,Wunderground v.1.15,2013-08-11 14:20:00,
2013-08-11 10:30:00,69.4,56.7,30.10,SSW,197,0.0,0.0,64,0.00,,,0.00,Wunderground v.1.15,2013-08-11 14:30:00,
2013-08-11 10:40:00,69.1,57.3,30.10,East,98,0.0,0.0,66,0.00,,,0.00,Wunderground v.1.15,2013-08-11 14:40:00,
2013-08-11 10:50:00,69.8,58.8,30.09,South,172,0.0,0.0,68,0.00,,,0.00,Wunderground v.1.15,2013-08-11 14:50:00,
2013-08-11 11:00:00,69.8,55.7,30.09,East,85,0.0,0.0,61,0.00,,,0.00,Wunderground v.1.15,2013-08-11 15:00:00,
2013-08-11 11:10:00,70.4,56.8,30.09,SW,231,0.0,0.0,62,0.00,,,0.00,Wunderground v.1.15,2013-08-11 15:10:00,
2013-08-11 11:20:00,70.9,58.1,30.09,ESE,115,0.0,2.0,64,0.00,,,0.00,Wunderground v.1.15,2013-08-11 15:20:00,
2013-08-11 11:30:00,71.5,58.2,30.08,SSE,167,0.0,0.0,63,0.00,,,0.00,Wunderground v.1.15,2013-08-11 15:30:00,
2013-08-11 11:40:00,72.5,58.7,30.08,WSW,241,0.0,0.0,62,0.00,,,0.00,Wunderground v.1.15,2013-08-11 15:40:00,
2013-08-11 11:50:00,73.3,55.6,30.08,SW,236,0.0,0.0,54,0.00,,,0.00,Wunderground v.1.15,2013-08-11 15:50:00,
2013-08-11 12:00:00,72.1,55.5,30.08,West,262,0.0,1.0,56,0.00,,,0.00,Wunderground v.1.15,2013-08-11 16:00:00,
2013-08-11 12:10:00,70.9,56.3,30.08,West,264,0.0,0.0,60,0.00,,,0.00,Wunderground v.1.15,2013-08-11 16:10:00,
2013-08-11 12:20:00,70.9,54.4,30.07,South,185,0.0,0.0,56,0.00,,,0.00,Wunderground v.1.15,2013-08-11 16:20:00,
2013-08-11 12:30:00,73.0,56.4,30.07,SE,126,0.0,3.0,56,0.00,,,0.00,Wunderground v.1.15,2013-08-11 16:30:00,
2013-08-11 12:40:00,74.2,55.4,30.07,SSE,152,1.0,1.0,52,0.00,,,0.00,Wunderground v.1.15,2013-08-11 16:40:00,
2013-08-11 12:50:00,73.5,53.2,30.06,ESE,112,1.0,1.0,49,0.00,,,0.00,Wunderground v.1.15,2013-08-11 16:50:00,
2013-08-11 13:00:00,74.2,53.8,30.06,SSE,162,0.0,1.0,49,0.00,,,0.00,Wunderground v.1.15,2013-08-11 17:00:00,
2013-08-11 13:10:00,74.4,53.4,30.06,ESE,106,1.0,4.0,48,0.00,,,0.00,Wunderground v.1.15,2013-08-11 17:10:00,
2013-08-11 13:20:00,74.4,52.3,30.05,WNW,286,0.0,4.0,46,0.00,,,0.00,Wunderground v.1.15,2013-08-11 17:20:00,
2013-08-11 13:30:00,74.6,56.3,30.05,ENE,72,0.0,4.0,53,0.00,,,0.00,Wunderground v.1.15,2013-08-11 17:30:00,
2013-08-11 13:40:00,74.6,51.9,30.05,East,95,1.0,1.0,45,0.00,,,0.00,Wunderground v.1.15,2013-08-11 17:40:00,
2013-08-11 13:50:00,75.8,55.8,30.05,ESE,104,0.0,4.0,50,0.00,,,0.00,Wunderground v.1.15,2013-08-11 17:50:00,
2013-08-11 14:00:00,76.0,57.6,30.05,SSW,203,1.0,4.0,53,0.00,,,0.00,Wunderground v.1.15,2013-08-11 18:00:00,
2013-08-11 14:10:00,75.6,53.4,30.05,SE,138,1.0,4.0,46,0.00,,,0.00,Wunderground v.1.15,2013-08-11 18:10:00,
2013-08-11 14:20:00,75.6,56.2,30.05,SSE,166,1.0,1.0,51,0.00,,,0.00,Wunderground v.1.15,2013-08-11 18:20:00,
2013-08-11 14:30:00,74.0,54.2,30.05,East,85,1.0,1.0,50,0.00,,,0.00,Wunderground v.1.15,2013-08-11 18:30:00,
2013-08-11 14:40:00,73.7,57.0,30.05,East,96,0.0,4.0,56,0.00,,,0.00,Wunderground v.1.15,2013-08-11 18:40:00,
2013-08-11 14:50:00,74.7,54.8,30.04,SE,137,1.0,1.0,50,0.00,,,0.00,Wunderground v.1.15,2013-08-11 18:50:00,
2013-08-11 15:00:00,76.7,54.4,30.03,South,186,0.0,4.0,46,0.00,,,0.00,Wunderground v.1.15,2013-08-11 19:00:00,
2013-08-11 15:10:00,76.5,57.0,30.03,South,180,1.0,1.0,51,0.00,,,0.00,Wunderground v.1.15,2013-08-11 19:10:00,
2013-08-11 15:20:00,76.8,55.0,30.03,SW,235,0.0,4.0,47,0.00,,,0.00,Wunderground v.1.15,2013-08-11 19:20:00,
2013-08-11 15:30:00,76.7,53.1,30.03,SE,146,1.0,1.0,44,0.00,,,0.00,Wunderground v.1.15,2013-08-11 19:30:00,
2013-08-11 15:40:00,76.3,54.0,30.03,ESE,110,1.0,1.0,46,0.00,,,0.00,Wunderground v.1.15,2013-08-11 19:40:00,
2013-08-11 15:50:00,74.9,54.4,30.02,South,173,2.0,2.0,49,0.00,,,0.00,Wunderground v.1.15,2013-08-11 19:50:00,
2013-08-11 16:00:00,73.5,54.8,30.02,ESE,108,0.0,4.0,52,0.00,,,0.00,Wunderground v.1.15,2013-08-11 20:00:00,
2013-08-11 16:10:00,74.4,57.2,30.02,SW,224,0.0,4.0,55,0.00,,,0.00,Wunderground v.1.15,2013-08-11 20:10:00,
2013-08-11 16:20:00,75.8,55.3,30.01,SE,139,1.0,1.0,49,0.00,,,0.00,Wunderground v.1.15,2013-08-11 20:20:00,
2013-08-11 16:30:00,76.0,54.9,30.01,SSE,147,0.0,4.0,48,0.00,,,0.00,Wunderground v.1.15,2013-08-11 20:30:00,
2013-08-11 16:40:00,76.0,57.6,30.01,ESE,121,0.0,4.0,53,0.00,,,0.00,Wunderground v.1.15,2013-08-11 20:40:00,
2013-08-11 16:50:00,75.1,56.8,30.01,SSE,162,1.0,1.0,53,0.00,,,0.00,Wunderground v.1.15,2013-08-11 20:50:00,
2013-08-11 17:00:00,74.2,57.0,30.01,ESE,106,1.0,4.0,55,0.00,,,0.00,Wunderground v.1.15,2013-08-11 21:00:00,
2013-08-11 17:10:00,73.2,55.6,30.01,SSE,150,2.0,2.0,54,0.00,,,0.00,Wunderground v.1.15,2013-08-11 21:10:00,
2013-08-11 17:20:00,73.7,55.5,30.00,SSE,152,2.0,2.0,53,0.00,,,0.00,Wunderground v.1.15,2013-08-11 21:20:00,
2013-08-11 17:30:00,73.9,55.7,30.00,ESE,121,0.0,4.0,53,0.00,,,0.00,Wunderground v.1.15,2013-08-11 21:30:00,
2013-08-11 17:40:00,74.0,57.8,30.00,SSE,161,0.0,4.0,57,0.00,,,0.00,Wunderground v.1.15,2013-08-11 21:40:00,
2013-08-11 17:50:00,73.3,54.6,30.00,South,172,1.0,1.0,52,0.00,,,0.00,Wunderground v.1.15,2013-08-11 21:50:00,
2013-08-11 18:00:00,73.3,55.6,30.00,SE,137,1.0,1.0,54,0.00,,,0.00,Wunderground v.1.15,2013-08-11 22:00:00,
2013-08-11 18:10:00,73.2,57.5,30.00,ESE,121,1.0,1.0,58,0.00,,,0.00,Wunderground v.1.15,2013-08-11 22:10:00,
2013-08-11 18:20:00,72.7,55.6,30.00,East,95,1.0,1.0,55,0.00,,,0.00,Wunderground v.1.15,2013-08-11 22:20:00,
2013-08-11 18:30:00,72.1,56.5,29.99,ESE,121,1.0,1.0,58,0.00,,,0.00,Wunderground v.1.15,2013-08-11 22:30:00,
2013-08-11 18:40:00,71.5,56.4,29.99,ESE,112,1.0,1.0,59,0.00,,,0.00,Wunderground v.1.15,2013-08-11 22:40:00,
2013-08-11 18:50:00,70.8,55.3,30.00,East,98,1.0,1.0,58,0.00,,,0.00,Wunderground v.1.15,2013-08-11 22:50:00,
2013-08-11 19:00:00,70.6,55.1,30.00,ESE,121,3.0,3.0,58,0.00,,,0.00,Wunderground v.1.15,2013-08-11 23:00:00,
2013-08-11 19:10:00,69.9,54.9,30.00,SE,136,1.0,1.0,59,0.00,,,0.00,Wunderground v.1.15,2013-08-11 23:10:00,
2013-08-11 19:40:00,67.9,55.3,30.00,East,95,0.0,11.0,64,0.00,,,0.00,Wunderground v.1.15,2013-08-11 23:40:00,
2013-08-11 19:50:00,67.1,55.4,30.00,ESE,108,0.0,11.0,66,0.00,,,0.00,Wunderground v.1.15,2013-08-11 23:50:00,
2013-08-11 20:00:00,66.6,54.9,30.00,East,80,0.0,11.0,66,0.00,,,0.00,Wunderground v.1.15,2013-08-12 00:00:00,
2013-08-11 20:10:00,66.1,54.8,30.00,East,94,0.0,11.0,67,0.00,,,0.00,Wunderground v.1.15,2013-08-12 00:10:00,
2013-08-11 20:20:00,65.8,54.5,30.00,East,91,0.0,11.0,67,0.00,,,0.00,Wunderground v.1.15,2013-08-12 00:20:00,
2013-08-11 20:30:00,65.8,54.1,30.00,East,97,0.0,11.0,66,0.00,,,0.00,Wunderground v.1.15,2013-08-12 00:30:00,
2013-08-11 20:40:00,65.8,54.1,30.00,East,99,1.0,1.0,66,0.00,,,0.00,Wunderground v.1.15,2013-08-12 00:40:00,
2013-08-11 20:50:00,65.6,53.5,30.02,East,80,0.0,11.0,65,0.00,,,0.00,Wunderground v.1.15,2013-08-12 00:50:00,
2013-08-11 21:00:00,65.5,53.4,30.02,East,85,0.0,11.0,65,0.00,,,0.00,Wunderground v.1.15,2013-08-12 01:00:00,
2013-08-11 21:10:00,65.5,53.4,30.02,ESE,112,0.0,11.0,65,0.00,,,0.00,Wunderground v.1.15,2013-08-12 01:10:00,
2013-08-11 21:20:00,64.7,53.5,30.02,East,87,0.0,11.0,67,0.00,,,0.00,Wunderground v.1.15,2013-08-12 01:20:00,
2013-08-11 21:30:00,64.7,53.5,30.02,ESE,103,0.0,11.0,67,0.00,,,0.00,Wunderground v.1.15,2013-08-12 01:30:00,
2013-08-11 21:40:00,64.7,53.1,30.02,ESE,102,0.0,11.0,66,0.00,,,0.00,Wunderground v.1.15,2013-08-12 01:40:00,
2013-08-11 21:50:00,64.8,53.2,30.03,ENE,72,0.0,11.0,66,0.00,,,0.00,Wunderground v.1.15,2013-08-12 01:50:00,
2013-08-11 22:00:00,64.7,53.5,30.02,East,93,0.0,11.0,67,0.00,,,0.00,Wunderground v.1.15,2013-08-12 02:00:00,
2013-08-11 22:10:00,64.3,53.5,30.02,East,93,0.0,11.0,68,0.00,,,0.00,Wunderground v.1.15,2013-08-12 02:10:00,
2013-08-11 22:20:00,64.0,53.2,30.02,ESE,108,0.0,11.0,68,0.00,,,0.00,Wunderground v.1.15,2013-08-12 02:20:00,
2013-08-11 22:30:00,63.9,53.5,30.02,East,89,0.0,11.0,69,0.00,,,0.00,Wunderground v.1.15,2013-08-12 02:30:00,
2013-08-11 22:40:00,63.9,53.9,30.02,East,89,0.0,11.0,70,0.00,,,0.00,Wunderground v.1.15,2013-08-12 02:40:00,
2013-08-11 22:50:00,63.4,53.8,30.02,East,89,0.0,11.0,71,0.00,,,0.00,Wunderground v.1.15,2013-08-12 02:50:00,
2013-08-11 23:00:00,62.3,53.9,30.02,ENE,77,0.0,11.0,74,0.00,,,0.00,Wunderground v.1.15,2013-08-12 03:00:00,
2013-08-11 23:10:00,61.2,54.6,30.02,ENE,77,0.0,11.0,79,0.00,,,0.00,Wunderground v.1.15,2013-08-12 03:10:00,
2013-08-11 23:20:00,61.8,54.2,30.03,ENE,77,0.0,11.0,76,0.00,,,0.00,Wunderground v.1.15,2013-08-12 03:20:00,
2013-08-11 23:30:00,62.1,54.4,30.03,ENE,77,0.0,11.0,76,0.00,,,0.00,Wunderground v.1.15,2013-08-12 03:30:00,
2013-08-11 23:40:00,60.5,54.3,30.03,ENE,77,0.0,11.0,80,0.00,,,0.00,Wunderground v.1.15,2013-08-12 03:40:00,
2013-08-11 23:50:00,59.3,54.1,30.03,ENE,77,0.0,11.0,83,0.00,,,0.00,Wunderground v.1.15,2013-08-12 03:50:00,